Limpio, algunas nubes cirrus
Limpio, algunas nubes cirrus
Limpio, algunas nubes cirrus
Limpio, algunas nubes cirrus
Limpio, sin nubes
Limpio, sin nubes
Limpio, sin nubes
(°C)
27°
27°
26°
26°
25°
25°
24°
24°
22°
22°
20°
20°
18°
18°
(°C)
21°
21°
20°
19°
18°
17°
16°
SSE
SSE
SSE
SSE
SSE
E
ENE
(km/h)
28-44
20-36
18-33
16-30
13-29
9-22
8-14
(mm)
0
0
0
0
0
0
0
(%)
0
0
0
0
0
0
0

Elevación del sol

/ 42.6°
sun-icon
UV 8
06:50
21:12
Gibosa creciente (123°)
16:26
04:17

METAR a Alcantarilla (LERI)

Hora Condiciones Temperatura/
Punto de condensación
Viento Visibilidad Tiempo Nubes Presión Cambiar Bruto
VFR 27°C / 5°C 140º 15kt Gust 26kt 9700m - Clouds and Visibility OK 1008 No Significant change LERI 181500Z 14015G26KT CAVOK 27/05 Q1008 NOSIG
VFR 28°C / 6°C 150º variable 110º to 190º 13kt Gust 23kt 9700m - Clouds and Visibility OK 1008 No Significant change LERI 181430Z 15013G23KT 110V190 CAVOK 28/06 Q1008 NOSIG
VFR 28°C / 7°C 170º variable 090º to 200º 15kt Gust 27kt 9700m - Clouds and Visibility OK 1008 No Significant change LERI 181400Z 17015G27KT 090V200 CAVOK 28/07 Q1008 NOSIG
VFR 27°C / 8°C 150º 16kt 9700m - Clouds and Visibility OK 1009 No Significant change LERI 181330Z 15016KT CAVOK 27/08 Q1009 NOSIG
VFR 27°C / 9°C 150º variable 110º to 170º 13kt 9700m - Clouds and Visibility OK 1009 No Significant change LERI 181300Z 15013KT 110V170 CAVOK 27/09 Q1009 NOSIG
VFR 27°C / 7°C 140º variable 070º to 170º 12kt 9700m - Clouds and Visibility OK 1009 No Significant change LERI 181230Z 14012KT 070V170 CAVOK 27/07 Q1009 NOSIG
VFR 27°C / 6°C 140º 10kt 9700m - Clouds and Visibility OK 1010 No Significant change LERI 181200Z 14010KT CAVOK 27/06 Q1010 NOSIG
VFR 28°C / 5°C 4kt 9700m - Clouds and Visibility OK 1010 No Significant change LERI 181130Z VRB04KT CAVOK 28/05 Q1010 NOSIG
VFR 27°C / 4°C 4kt 9700m - Clouds and Visibility OK 1010 No Significant change LERI 181100Z VRB04KT CAVOK 27/04 Q1010 NOSIG
VFR 26°C / 4°C 3kt 9700m - Clouds and Visibility OK 1010 No Significant change LERI 181030Z VRB03KT CAVOK 26/04 Q1010 NOSIG
VFR 25°C / 4°C 4kt 9700m - Clouds and Visibility OK 1011 No Significant change LERI 181000Z VRB04KT CAVOK 25/04 Q1011 NOSIG
VFR 25°C / 4°C 310º 3kt 9700m - Clouds and Visibility OK 1010 No Significant change LERI 180930Z 31003KT CAVOK 25/04 Q1010 NOSIG
VFR 25°C / 4°C 3kt 9700m - Clouds and Visibility OK 1011 No Significant change LERI 180900Z VRB03KT CAVOK 25/04 Q1011 NOSIG
VFR 23°C / 4°C 280º variable 230º to 330º 5kt 9700m - Clouds and Visibility OK 1011 No Significant change LERI 180830Z 28005KT 230V330 CAVOK 23/04 Q1011 NOSIG
VFR 23°C / 4°C 270º variable 220º to 330º 6kt 9700m - Clouds and Visibility OK 1011 No Significant change LERI 180800Z 27006KT 220V330 CAVOK 23/04 Q1011 NOSIG
VFR 22°C / 5°C 270º variable 240º to 300º 7kt 9700m - Clouds and Visibility OK 1011 No Significant change LERI 180730Z 27007KT 240V300 CAVOK 22/05 Q1011 NOSIG
VFR 22°C / 4°C 270º 7kt 9700m - Clouds and Visibility OK 1011 No Significant change LERI 180700Z 27007KT CAVOK 22/04 Q1011 NOSIG
VFR 21°C / 4°C 280º 8kt 9700m - Clouds and Visibility OK 1010 No Significant change LERI 180630Z 28008KT CAVOK 21/04 Q1010 NOSIG
VFR 19°C / 5°C 230º variable 190º to 280º 4kt 9700m - Clouds and Visibility OK 1010 No Significant change LERI 180600Z 23004KT 190V280 CAVOK 19/05 Q1010 NOSIG
VFR 25°C / 5°C 150º 10kt 9700m - Few Clouds 6000ft 1007 No Significant change LERI 171800Z 15010KT 9999 FEW060 25/05 Q1007 NOSIG
VFR 25°C / 7°C 150º variable 120º to 200º 12kt 9700m - Few Clouds 6000ft 1007 No Significant change LERI 171700Z 15012KT 120V200 9999 FEW060 25/07 Q1007 NOSIG
VFR 26°C / 9°C 160º 13kt 9700m - Few Clouds 6000ft 1007 No Significant change LERI 171630Z 16013KT 9999 FEW060 26/09 Q1007 NOSIG
VFR 26°C / 9°C 150º variable 120º to 190º 14kt 9700m - Few Clouds 6000ft 1007 No Significant change LERI 171600Z 15014KT 120V190 9999 FEW060 26/09 Q1007 NOSIG
VFR 26°C / 9°C 160º 18kt 9700m - Few Clouds 6000ft 1007 No Significant change LERI 171530Z 16018KT 9999 FEW060 26/09 Q1007 NOSIG

VFR

27°C / 5°C

[Más]
Viento 140º 15kt Gust 26kt
Visibilidad 9700m
Tiempo -
Nubes Clouds and Visibility OK
Presión 1008
Cambiar No Significant change
Bruto LERI 181500Z 14015G26KT CAVOK 27/05 Q1008 NOSIG

VFR

28°C / 6°C

[Más]
Viento 150º variable 110º to 190º 13kt Gust 23kt
Visibilidad 9700m
Tiempo -
Nubes Clouds and Visibility OK
Presión 1008
Cambiar No Significant change
Bruto LERI 181430Z 15013G23KT 110V190 CAVOK 28/06 Q1008 NOSIG

VFR

28°C / 7°C

[Más]
Viento 170º variable 090º to 200º 15kt Gust 27kt
Visibilidad 9700m
Tiempo -
Nubes Clouds and Visibility OK
Presión 1008
Cambiar No Significant change
Bruto LERI 181400Z 17015G27KT 090V200 CAVOK 28/07 Q1008 NOSIG

VFR

27°C / 8°C

[Más]
Viento 150º 16kt
Visibilidad 9700m
Tiempo -
Nubes Clouds and Visibility OK
Presión 1009
Cambiar No Significant change
Bruto LERI 181330Z 15016KT CAVOK 27/08 Q1009 NOSIG

VFR

27°C / 9°C

[Más]
Viento 150º variable 110º to 170º 13kt
Visibilidad 9700m
Tiempo -
Nubes Clouds and Visibility OK
Presión 1009
Cambiar No Significant change
Bruto LERI 181300Z 15013KT 110V170 CAVOK 27/09 Q1009 NOSIG

VFR

27°C / 7°C

[Más]
Viento 140º variable 070º to 170º 12kt
Visibilidad 9700m
Tiempo -
Nubes Clouds and Visibility OK
Presión 1009
Cambiar No Significant change
Bruto LERI 181230Z 14012KT 070V170 CAVOK 27/07 Q1009 NOSIG

VFR

27°C / 6°C

[Más]
Viento 140º 10kt
Visibilidad 9700m
Tiempo -
Nubes Clouds and Visibility OK
Presión 1010
Cambiar No Significant change
Bruto LERI 181200Z 14010KT CAVOK 27/06 Q1010 NOSIG

VFR

28°C / 5°C

[Más]
Viento 4kt
Visibilidad 9700m
Tiempo -
Nubes Clouds and Visibility OK
Presión 1010
Cambiar No Significant change
Bruto LERI 181130Z VRB04KT CAVOK 28/05 Q1010 NOSIG

VFR

27°C / 4°C

[Más]
Viento 4kt
Visibilidad 9700m
Tiempo -
Nubes Clouds and Visibility OK
Presión 1010
Cambiar No Significant change
Bruto LERI 181100Z VRB04KT CAVOK 27/04 Q1010 NOSIG

VFR

26°C / 4°C

[Más]
Viento 3kt
Visibilidad 9700m
Tiempo -
Nubes Clouds and Visibility OK
Presión 1010
Cambiar No Significant change
Bruto LERI 181030Z VRB03KT CAVOK 26/04 Q1010 NOSIG

VFR

25°C / 4°C

[Más]
Viento 4kt
Visibilidad 9700m
Tiempo -
Nubes Clouds and Visibility OK
Presión 1011
Cambiar No Significant change
Bruto LERI 181000Z VRB04KT CAVOK 25/04 Q1011 NOSIG

VFR

25°C / 4°C

[Más]
Viento 310º 3kt
Visibilidad 9700m
Tiempo -
Nubes Clouds and Visibility OK
Presión 1010
Cambiar No Significant change
Bruto LERI 180930Z 31003KT CAVOK 25/04 Q1010 NOSIG

VFR

25°C / 4°C

[Más]
Viento 3kt
Visibilidad 9700m
Tiempo -
Nubes Clouds and Visibility OK
Presión 1011
Cambiar No Significant change
Bruto LERI 180900Z VRB03KT CAVOK 25/04 Q1011 NOSIG

VFR

23°C / 4°C

[Más]
Viento 280º variable 230º to 330º 5kt
Visibilidad 9700m
Tiempo -
Nubes Clouds and Visibility OK
Presión 1011
Cambiar No Significant change
Bruto LERI 180830Z 28005KT 230V330 CAVOK 23/04 Q1011 NOSIG

VFR

23°C / 4°C

[Más]
Viento 270º variable 220º to 330º 6kt
Visibilidad 9700m
Tiempo -
Nubes Clouds and Visibility OK
Presión 1011
Cambiar No Significant change
Bruto LERI 180800Z 27006KT 220V330 CAVOK 23/04 Q1011 NOSIG

VFR

22°C / 5°C

[Más]
Viento 270º variable 240º to 300º 7kt
Visibilidad 9700m
Tiempo -
Nubes Clouds and Visibility OK
Presión 1011
Cambiar No Significant change
Bruto LERI 180730Z 27007KT 240V300 CAVOK 22/05 Q1011 NOSIG

VFR

22°C / 4°C

[Más]
Viento 270º 7kt
Visibilidad 9700m
Tiempo -
Nubes Clouds and Visibility OK
Presión 1011
Cambiar No Significant change
Bruto LERI 180700Z 27007KT CAVOK 22/04 Q1011 NOSIG

VFR

21°C / 4°C

[Más]
Viento 280º 8kt
Visibilidad 9700m
Tiempo -
Nubes Clouds and Visibility OK
Presión 1010
Cambiar No Significant change
Bruto LERI 180630Z 28008KT CAVOK 21/04 Q1010 NOSIG

VFR

19°C / 5°C

[Más]
Viento 230º variable 190º to 280º 4kt
Visibilidad 9700m
Tiempo -
Nubes Clouds and Visibility OK
Presión 1010
Cambiar No Significant change
Bruto LERI 180600Z 23004KT 190V280 CAVOK 19/05 Q1010 NOSIG

VFR

25°C / 5°C

[Más]
Viento 150º 10kt
Visibilidad 9700m
Tiempo -
Nubes Few Clouds 6000ft
Presión 1007
Cambiar No Significant change
Bruto LERI 171800Z 15010KT 9999 FEW060 25/05 Q1007 NOSIG

VFR

25°C / 7°C

[Más]
Viento 150º variable 120º to 200º 12kt
Visibilidad 9700m
Tiempo -
Nubes Few Clouds 6000ft
Presión 1007
Cambiar No Significant change
Bruto LERI 171700Z 15012KT 120V200 9999 FEW060 25/07 Q1007 NOSIG

VFR

26°C / 9°C

[Más]
Viento 160º 13kt
Visibilidad 9700m
Tiempo -
Nubes Few Clouds 6000ft
Presión 1007
Cambiar No Significant change
Bruto LERI 171630Z 16013KT 9999 FEW060 26/09 Q1007 NOSIG

VFR

26°C / 9°C

[Más]
Viento 150º variable 120º to 190º 14kt
Visibilidad 9700m
Tiempo -
Nubes Few Clouds 6000ft
Presión 1007
Cambiar No Significant change
Bruto LERI 171600Z 15014KT 120V190 9999 FEW060 26/09 Q1007 NOSIG

VFR

26°C / 9°C

[Más]
Viento 160º 18kt
Visibilidad 9700m
Tiempo -
Nubes Few Clouds 6000ft
Presión 1007
Cambiar No Significant change
Bruto LERI 171530Z 16018KT 9999 FEW060 26/09 Q1007 NOSIG

TAF a Alcantarilla (LERI)

From till


Maximum Temperature 29ºC on . Minimum Temperature 15ºC on .
From till Wind 3kt. Visibility 9700m. Nil Significant Cloud.
Becoming from till
Becoming from till
With 30% probability, from till Broken Clouds 1200ft.

Bruto: TAF LERI 181100Z 1812/1912 VRB03KT CAVOK TX29/1814Z TN15/1906Z BECMG 1812/1814 15010KT BECMG 1819/1820 06008KT PROB30 1902/1906 BKN012

Radar y precipitación nowcast para Alcantarilla

llovizna
Leve
Moderado
Fuerte
Muy fuerte
Granizo

El marcador del lugar se coloca en Alcantarilla. Esta animación muestra el radar de precipitación para el intervalo de tiempo seleccionado, así como una previsión de 2h. Las cruces naranjas indican rayos. Datos proporcionados por nowcast.de (disponibles en EE.UU., Europa y Australia). La llovizna o una ligera nevada pueden ser invisibles para el radar. La intensidad de la precipitación está codificada por colores, del turquesa al rojo.

Imágenes actuales de satélite y lluvia para Alcantarilla, España

El marcador del lugar se coloca en Alcantarilla. [Más]

La imagen de satélite en tiempo real se aprovecha de la combinación de bandas de la luz visible y de la luz infrarroja. Cómo se pueden detectar cambios de temperaturas a través de la banda infrarrojo, la imagen no aparece oscura de noche. No obstante, la niebla y las nubes bajas son apenas visibles en las imágenes de infrarrojo ya que las diferencias de temperaturas entre el suelo y la niebla son muy pequeñas, por eso, son casi invisibles durante la noche. Las imágenes de satélite del Meteosat (Europa) son actualizados en tiempo real cada 5 minutos. Las imágenes del GOES-16/GOES-17 (América del Norte y América del Sur) y Himawari (Asia) son actualizadas cada 10 minutos.

La precipitación se estima a partir del radar y de los satélites. Las estimaciones de la precipitación desde los satélites son menos precisas durante la noche que durante el día.

© 2024 meteoblue, NOAA Satellites GOES-16 and EUMETSAT. Datos de relámpagos proporcionados por nowcast.

Volver al principio
×
Hola,
parece que está usando un bloqueador de anuncios.

La publicidad es esencial para mantener nuestro sitio web gratuito con detalle y precisión únicos.

Por favor, incluya www.meteoblue.com en la lista blanca de su bloqueador de anuncios o considere comprar uno de nuestros productos:

¿Ya hay subscripción?
Entonces, por favor, iniciar sesión.